Time;durP1;ratioP1;P1;durP2;ratioP2;P2;SDS_P1;SDS_P2;PMS_P1;PMS_P2;Temp;Humidity;BMP_temperature;BMP_pressure;BME280_temperature;BME280_humidity;BME280_pressure;Samples;Min_cycle;Max_cycle;Signal;HPM_P1;HPM_P2
2021/01/09 00:01:42;;;;;;;39.43;19.77;;;;;;;1.91;100.00;102415.12;1793368;80;26208;-86
2021/01/09 00:04:13;;;;;;;39.13;19.67;;;;;;;2.09;100.00;102411.48;1793586;79;26707;-87
2021/01/09 00:06:45;;;;;;;44.77;20.47;;;;;;;2.20;100.00;102423.31;1793527;79;26326;-88
2021/01/09 00:09:15;;;;;;;42.87;20.33;;;;;;;2.25;100.00;102422.22;1793720;79;26260;-85
2021/01/09 00:11:45;;;;;;;38.73;20.17;;;;;;;2.33;100.00;102426.73;1793652;80;26208;-85
2021/01/09 00:14:16;;;;;;;40.00;20.00;;;;;;;2.19;100.00;102426.57;1793451;80;26692;-86
2021/01/09 00:16:48;;;;;;;43.07;21.20;;;;;;;2.05;100.00;102429.34;1793417;79;26215;-86
2021/01/09 00:19:18;;;;;;;42.60;20.03;;;;;;;2.06;100.00;102430.51;1793375;79;26215;-86
2021/01/09 00:21:55;;;;;;;43.13;20.70;;;;;;;2.18;100.00;102434.45;1793250;80;26287;-87
2021/01/09 00:24:25;;;;;;;44.30;20.73;;;;;;;2.17;100.00;102434.15;1793158;80;26455;-87
2021/01/09 00:26:55;;;;;;;45.80;20.30;;;;;;;2.24;100.00;102434.22;1793355;79;26233;-87
2021/01/09 00:29:25;;;;;;;38.60;18.03;;;;;;;2.35;100.00;102431.52;1793254;80;26624;-86
2021/01/09 00:31:55;;;;;;;43.03;19.73;;;;;;;2.36;100.00;102435.94;1793329;79;26212;-87
2021/01/09 00:34:25;;;;;;;41.20;19.20;;;;;;;2.24;100.00;102435.59;1793277;79;26212;-86
2021/01/09 00:36:55;;;;;;;34.83;17.13;;;;;;;2.29;100.00;102439.47;1793307;79;26200;-86
2021/01/09 00:39:25;;;;;;;38.67;17.53;;;;;;;2.25;100.00;102451.01;1793454;80;26371;-87
2021/01/09 00:41:55;;;;;;;35.90;17.03;;;;;;;2.24;100.00;102447.93;1793633;79;26654;-87
2021/01/09 00:44:25;;;;;;;37.27;17.63;;;;;;;2.21;100.00;102447.80;1793438;80;26278;-86
2021/01/09 00:46:56;;;;;;;38.23;18.40;;;;;;;2.42;100.00;102444.26;1793395;80;26359;-86
2021/01/09 00:49:29;;;;;;;36.63;17.20;;;;;;;2.25;100.00;102443.63;1793411;80;26679;-85
2021/01/09 00:51:59;;;;;;;35.43;16.27;;;;;;;2.49;100.00;102439.69;1793288;80;26266;-86
2021/01/09 00:54:29;;;;;;;34.37;17.50;;;;;;;2.43;100.00;102443.22;1793313;80;26286;-85
2021/01/09 00:56:59;;;;;;;32.23;16.53;;;;;;;2.26;100.00;102441.75;1793434;80;26282;-84
2021/01/09 00:59:29;;;;;;;36.13;16.83;;;;;;;2.36;100.00;102447.76;1793393;80;26730;-84
2021/01/09 01:01:59;;;;;;;33.47;17.03;;;;;;;2.27;100.00;102444.28;1793344;80;26282;-85
2021/01/09 01:04:29;;;;;;;39.70;17.37;;;;;;;2.28;100.00;102445.12;1793258;79;26224;-85
2021/01/09 01:06:59;;;;;;;32.40;15.80;;;;;;;2.29;100.00;102445.47;1793254;80;26767;-85
2021/01/09 01:09:29;;;;;;;39.13;16.87;;;;;;;2.25;100.00;102453.23;1793308;77;26263;-85
2021/01/09 01:11:59;;;;;;;31.30;15.20;;;;;;;2.46;100.00;102446.95;1793360;79;26216;-85
2021/01/09 01:14:28;;;;;;;34.40;15.10;;;;;;;2.49;100.00;102449.29;1793278;80;26745;-85
2021/01/09 01:16:58;;;;;;;34.07;13.90;;;;;;;2.40;100.00;102450.45;1793177;80;26279;-87
2021/01/09 01:19:28;;;;;;;34.07;14.33;;;;;;;2.48;100.00;102454.44;1793250;79;26212;-87
2021/01/09 01:21:58;;;;;;;30.97;14.67;;;;;;;2.62;100.00;102460.42;1793381;79;26286;-86
2021/01/09 01:24:30;;;;;;;33.43;15.03;;;;;;;2.46;100.00;102463.92;1793249;80;26240;-86
2021/01/09 01:26:59;;;;;;;35.63;14.97;;;;;;;2.43;100.00;102472.54;1793362;78;26212;-86
2021/01/09 01:29:30;;;;;;;37.37;17.40;;;;;;;2.51;100.00;102470.53;1793282;80;26228;-86
2021/01/09 01:32:00;;;;;;;36.73;16.83;;;;;;;2.49;100.00;102469.01;1793323;79;26278;-86
2021/01/09 01:34:30;;;;;;;38.97;16.90;;;;;;;2.58;100.00;102466.48;1793468;80;26215;-86
2021/01/09 01:37:00;;;;;;;33.03;15.47;;;;;;;2.54;100.00;102467.39;1793519;79;26255;-86
2021/01/09 01:39:30;;;;;;;34.60;15.47;;;;;;;2.48;100.00;102473.64;1793360;80;26286;-86
2021/01/09 01:42:00;;;;;;;34.50;14.13;;;;;;;2.44;100.00;102481.10;1793304;80;26758;-84
2021/01/09 01:44:32;;;;;;;38.33;15.97;;;;;;;2.47;100.00;102482.94;1793226;79;26295;-86
2021/01/09 01:47:04;;;;;;;32.60;14.20;;;;;;;2.53;100.00;102486.78;1793280;80;26725;-86
2021/01/09 01:49:34;;;;;;;35.97;13.80;;;;;;;2.50;100.00;102485.80;1793301;80;26244;-86
2021/01/09 01:52:05;;;;;;;31.23;13.80;;;;;;;2.42;100.00;102491.40;1793381;79;26676;-86
2021/01/09 01:54:35;;;;;;;31.53;14.53;;;;;;;2.50;100.00;102485.28;1793503;79;26349;-88
2021/01/09 01:57:08;;;;;;;35.77;13.57;;;;;;;2.46;100.00;102489.97;1793439;80;26334;-87
2021/01/09 01:59:39;;;;;;;32.43;14.13;;;;;;;2.49;100.00;102492.32;1793506;80;26205;-86
2021/01/09 02:02:11;;;;;;;28.97;12.43;;;;;;;2.53;100.00;102496.38;1793429;79;26753;-85
2021/01/09 02:04:41;;;;;;;28.87;11.63;;;;;;;2.58;100.00;102498.88;1793355;80;26216;-85
2021/01/09 02:07:14;;;;;;;28.00;12.63;;;;;;;2.57;100.00;102494.44;1793319;80;26228;-85
2021/01/09 02:09:47;;;;;;;27.67;12.47;;;;;;;2.65;100.00;102500.35;1793174;80;26651;-84
2021/01/09 02:12:20;;;;;;;30.33;13.33;;;;;;;2.61;100.00;102495.74;1793275;79;26201;-84
2021/01/09 02:14:52;;;;;;;29.63;12.80;;;;;;;2.61;100.00;102499.86;1793232;80;26211;-86
2021/01/09 02:17:23;;;;;;;24.80;11.63;;;;;;;2.63;100.00;102506.53;1793349;80;26319;-85
2021/01/09 02:19:55;;;;;;;27.07;11.07;;;;;;;2.66;100.00;102508.37;1793376;79;26774;-84
2021/01/09 02:22:27;;;;;;;23.97;11.27;;;;;;;2.66;100.00;102507.00;1793436;80;26281;-85
2021/01/09 02:24:56;;;;;;;24.63;10.83;;;;;;;2.59;100.00;102512.94;1793277;80;26718;-86
2021/01/09 02:27:26;;;;;;;20.33;10.20;;;;;;;2.63;100.00;102516.14;1793326;77;26283;-86
2021/01/09 02:30:00;;;;;;;21.83;10.60;;;;;;;2.60;100.00;102518.76;1793193;80;26275;-85
2021/01/09 02:32:33;;;;;;;18.33;9.10;;;;;;;2.63;100.00;102518.36;1793321;79;26631;-86
2021/01/09 02:35:04;;;;;;;16.77;8.40;;;;;;;2.60;100.00;102520.12;1793777;78;26298;-87
2021/01/09 02:37:34;;;;;;;20.40;10.13;;;;;;;2.58;100.00;102527.69;1793292;80;26219;-86
2021/01/09 02:40:06;;;;;;;21.57;10.50;;;;;;;2.55;100.00;102523.97;1793370;80;26293;-86
2021/01/09 02:42:36;;;;;;;23.33;10.90;;;;;;;2.53;100.00;102530.66;1793355;80;26279;-86
2021/01/09 02:45:08;;;;;;;20.87;10.97;;;;;;;2.48;100.00;102528.49;1793449;79;26313;-86
2021/01/09 02:47:40;;;;;;;20.90;9.43;;;;;;;2.72;100.00;102530.94;1793228;79;26239;-86
2021/01/09 02:50:12;;;;;;;19.87;10.27;;;;;;;2.69;100.00;102532.70;1793178;79;26683;-86
2021/01/09 02:52:42;;;;;;;19.20;9.73;;;;;;;2.47;100.00;102537.78;1793472;80;26312;-86
2021/01/09 02:55:12;;;;;;;15.90;8.67;;;;;;;2.49;100.00;102542.55;1793161;80;26235;-84
2021/01/09 02:57:42;;;;;;;16.83;7.70;;;;;;;2.50;100.00;102549.73;1793116;79;26652;-85
2021/01/09 03:00:15;;;;;;;16.40;8.53;;;;;;;2.59;100.00;102546.38;1793158;80;26219;-87
2021/01/09 03:02:44;;;;;;;17.57;8.63;;;;;;;2.63;100.00;102555.40;1793235;80;26208;-85
2021/01/09 03:05:15;;;;;;;18.50;9.47;;;;;;;2.57;100.00;102547.06;1793286;80;26211;-86
2021/01/09 03:07:45;;;;;;;18.90;10.47;;;;;;;2.52;100.00;102559.16;1793113;79;26231;-86
2021/01/09 03:10:14;;;;;;;17.63;9.50;;;;;;;2.72;100.00;102554.25;1793117;80;26235;-86
2021/01/09 03:12:45;;;;;;;25.03;10.43;;;;;;;2.61;100.00;102562.14;1793245;79;26314;-86
2021/01/09 03:15:15;;;;;;;23.13;10.87;;;;;;;2.59;100.00;102558.20;1793148;80;26725;-86
2021/01/09 03:17:45;;;;;;;25.43;10.73;;;;;;;2.70;100.00;102560.44;1793145;80;26262;-86
2021/01/09 03:20:15;;;;;;;21.37;10.13;;;;;;;2.61;100.00;102567.07;1793231;80;26220;-86
2021/01/09 03:22:45;;;;;;;27.10;11.90;;;;;;;2.52;100.00;102559.16;1793203;79;26209;-86
2021/01/09 03:25:15;;;;;;;23.83;10.50;;;;;;;2.52;100.00;102563.27;1793163;80;26648;-85
2021/01/09 03:27:45;;;;;;;23.57;10.83;;;;;;;2.60;100.00;102564.02;1793268;79;26302;-85
2021/01/09 03:30:17;;;;;;;22.37;10.60;;;;;;;2.51;100.00;102566.53;1793388;80;26223;-86
2021/01/09 03:32:47;;;;;;;20.30;8.77;;;;;;;2.57;100.00;102561.64;1793365;79;26255;-86
2021/01/09 03:35:17;;;;;;;16.33;9.10;;;;;;;2.59;100.00;102555.45;1793237;79;26209;-85
2021/01/09 03:37:47;;;;;;;23.50;9.30;;;;;;;2.49;100.00;102555.41;1793198;79;26235;-86
2021/01/09 03:40:17;;;;;;;22.43;10.13;;;;;;;2.49;100.00;102552.14;1793167;79;26212;-86
2021/01/09 03:42:47;;;;;;;21.50;10.40;;;;;;;2.44;100.00;102548.30;1793219;79;26742;-85
2021/01/09 03:45:16;;;;;;;23.33;9.90;;;;;;;2.43;100.00;102551.55;1793189;80;26286;-85
2021/01/09 03:47:46;;;;;;;23.93;9.53;;;;;;;2.40;100.00;102540.09;1793292;79;26205;-85
2021/01/09 03:50:16;;;;;;;21.60;9.67;;;;;;;2.58;100.00;102541.41;1793269;79;26215;-85
2021/01/09 03:52:46;;;;;;;18.77;9.70;;;;;;;2.54;100.00;102546.09;1793121;79;26223;-85
2021/01/09 03:55:16;;;;;;;22.90;10.43;;;;;;;2.49;100.00;102555.41;1793210;80;26274;-85
2021/01/09 03:57:46;;;;;;;23.53;10.83;;;;;;;2.55;100.00;102557.40;1793268;79;26652;-85
2021/01/09 04:00:17;;;;;;;25.13;10.20;;;;;;;2.64;100.00;102551.63;1793145;79;26663;-85
2021/01/09 04:02:47;;;;;;;23.27;10.37;;;;;;;2.51;100.00;102557.45;1793167;80;26259;-84
2021/01/09 04:05:17;;;;;;;20.60;9.97;;;;;;;2.56;100.00;102558.59;1793227;80;26335;-84
2021/01/09 04:07:47;;;;;;;26.43;10.97;;;;;;;2.41;100.00;102560.99;1793154;79;26204;-84
2021/01/09 04:10:17;;;;;;;23.23;10.20;;;;;;;2.42;100.00;102559.45;1793135;80;26298;-85
2021/01/09 04:12:47;;;;;;;26.60;11.50;;;;;;;2.50;100.00;102554.37;1793305;78;26326;-86
2021/01/09 04:15:17;;;;;;;21.60;9.97;;;;;;;2.47;100.00;102554.76;1793128;80;26196;-86
2021/01/09 04:17:46;;;;;;;24.03;10.33;;;;;;;2.59;100.00;102556.83;1793129;80;26203;-86
2021/01/09 04:20:16;;;;;;;25.80;11.43;;;;;;;2.56;100.00;102561.85;1793102;80;26204;-86
2021/01/09 04:22:46;;;;;;;24.30;10.33;;;;;;;2.56;100.00;102565.97;1793349;79;26279;-85
2021/01/09 04:25:16;;;;;;;20.53;9.13;;;;;;;2.64;100.00;102564.48;1793126;80;26220;-84
2021/01/09 04:27:46;;;;;;;20.70;9.67;;;;;;;2.59;100.00;102566.95;1793042;77;26363;-85
2021/01/09 04:30:18;;;;;;;20.37;9.37;;;;;;;2.45;100.00;102571.39;1793265;80;26317;-85
2021/01/09 04:32:49;;;;;;;20.73;8.87;;;;;;;2.49;100.00;102574.60;1793210;80;26730;-85
2021/01/09 04:35:19;;;;;;;24.70;10.10;;;;;;;2.60;100.00;102576.88;1793103;80;26298;-85
2021/01/09 04:37:49;;;;;;;20.33;9.80;;;;;;;2.60;100.00;102579.11;1793104;80;26624;-85
2021/01/09 04:40:19;;;;;;;20.93;9.80;;;;;;;2.57;100.00;102570.38;1793158;79;26632;-85
2021/01/09 04:42:49;;;;;;;21.30;10.63;;;;;;;2.66;100.00;102577.48;1793132;80;26335;-85
2021/01/09 04:45:19;;;;;;;22.97;10.00;;;;;;;2.60;100.00;102585.11;1793192;79;26282;-85
2021/01/09 04:47:51;;;;;;;21.53;9.87;;;;;;;2.68;100.00;102587.75;1793115;80;26212;-86
2021/01/09 04:50:22;;;;;;;20.27;10.77;;;;;;;2.77;100.00;102587.98;1793231;79;26243;-87
2021/01/09 04:52:53;;;;;;;18.27;8.77;;;;;;;2.63;100.00;102584.20;1793152;80;26274;-85
2021/01/09 04:55:23;;;;;;;20.60;9.23;;;;;;;2.55;100.00;102578.83;1793353;80;26282;-86
2021/01/09 04:57:53;;;;;;;18.37;8.53;;;;;;;2.59;100.00;102585.63;1793250;79;26291;-85
2021/01/09 05:00:23;;;;;;;17.77;8.87;;;;;;;2.50;100.00;102579.91;1781010;78;934811;-84
2021/01/09 05:02:54;;;;;;;19.03;9.03;;;;;;;2.50;100.00;102578.54;1787097;80;26291;-85
2021/01/09 05:05:24;;;;;;;17.67;8.77;;;;;;;2.51;100.00;102580.77;1787084;80;26212;-85
2021/01/09 05:07:54;;;;;;;15.27;7.67;;;;;;;2.56;100.00;102578.31;1787197;80;26654;-86
2021/01/09 05:10:24;;;;;;;14.17;7.30;;;;;;;2.54;100.00;102581.23;1786995;80;26416;-85
2021/01/09 05:12:54;;;;;;;15.80;7.40;;;;;;;2.57;100.00;102587.70;1787024;79;26318;-85
2021/01/09 05:15:33;;;;;;;11.23;6.70;;;;;;;2.71;100.00;102590.96;1787010;80;26209;-86
2021/01/09 05:18:03;;;;;;;12.30;7.10;;;;;;;2.57;100.00;102590.95;1787024;80;26236;-86
2021/01/09 05:20:34;;;;;;;13.10;7.53;;;;;;;2.65;100.00;102594.45;1787119;80;26663;-86
2021/01/09 05:23:06;;;;;;;14.27;7.43;;;;;;;2.65;100.00;102597.75;1787113;80;26248;-86
2021/01/09 05:25:37;;;;;;;15.53;7.63;;;;;;;2.66;100.00;102609.87;1787116;80;26232;-87
2021/01/09 05:28:09;;;;;;;17.00;8.10;;;;;;;2.71;100.00;102614.28;1787193;79;26298;-86
2021/01/09 05:30:43;;;;;;;17.50;8.23;;;;;;;2.67;100.00;102618.45;1787309;79;26735;-85
2021/01/09 05:33:13;;;;;;;18.00;9.07;;;;;;;2.60;100.00;102618.03;1787215;80;26306;-86
2021/01/09 05:35:43;;;;;;;15.60;9.53;;;;;;;2.72;100.00;102620.63;1787096;80;26729;-86
2021/01/09 05:38:13;;;;;;;22.10;10.47;;;;;;;2.61;100.00;102624.69;1787116;79;26235;-85
2021/01/09 05:40:43;;;;;;;16.77;8.50;;;;;;;2.57;100.00;102624.73;1787086;80;26286;-85
2021/01/09 05:43:13;;;;;;;20.60;10.30;;;;;;;2.67;100.00;102629.42;1787266;80;26216;-84
2021/01/09 05:45:43;;;;;;;19.27;9.17;;;;;;;2.73;100.00;102629.20;1787345;79;26750;-84
2021/01/09 05:48:13;;;;;;;18.03;9.50;;;;;;;2.65;100.00;102631.49;1787127;79;26286;-86
2021/01/09 05:50:43;;;;;;;23.33;10.57;;;;;;;2.59;100.00;102632.27;1787153;80;26757;-87
2021/01/09 05:53:20;;;;;;;25.27;11.27;;;;;;;2.55;100.00;102633.69;1787178;79;26226;-85
2021/01/09 05:55:51;;;;;;;19.77;9.83;;;;;;;2.54;100.00;102638.83;1784136;79;26276;-85
2021/01/09 05:58:24;;;;;;;22.23;11.23;;;;;;;2.56;100.00;102646.38;1787369;80;26209;-86
2021/01/09 06:00:57;;;;;;;22.27;10.37;;;;;;;2.78;100.00;102641.83;1787217;79;26677;-87
2021/01/09 06:03:41;;;;;;;18.00;9.83;;;;;;;2.62;100.00;102647.48;1787339;80;26305;-85
2021/01/09 06:06:36;;;;;;;19.33;9.33;;;;;;;2.55;100.00;102650.66;1787338;80;26582;-87
2021/01/09 06:09:08;;;;;;;21.17;10.07;;;;;;;2.67;100.00;102645.03;1779428;80;26658;-85
2021/01/09 06:11:41;;;;;;;23.83;10.43;;;;;;;2.54;100.00;102645.69;1813071;79;26222;-88
2021/01/09 06:14:13;;;;;;;22.20;9.30;;;;;;;2.52;100.00;102653.27;1779285;78;26278;-86
2021/01/09 06:16:44;;;;;;;17.10;8.40;;;;;;;2.65;100.00;102648.50;1793067;80;26208;-86
2021/01/09 06:19:16;;;;;;;17.23;8.20;;;;;;;2.79;100.00;102655.86;1793059;80;26682;-85
2021/01/09 06:21:46;;;;;;;15.30;8.67;;;;;;;2.57;100.00;102649.94;1793099;79;26227;-84
2021/01/09 06:24:18;;;;;;;13.87;7.47;;;;;;;2.59;100.00;102645.12;1793195;80;26683;-85
2021/01/09 06:26:48;;;;;;;15.40;7.93;;;;;;;2.58;100.00;102649.76;1793213;79;26220;-85
2021/01/09 06:29:23;;;;;;;15.23;8.30;;;;;;;2.66;100.00;102655.15;1793184;78;26404;-84
2021/01/09 06:31:57;;;;;;;16.80;8.77;;;;;;;2.65;100.00;102651.25;1793070;79;26698;-86
2021/01/09 06:34:28;;;;;;;18.60;9.17;;;;;;;2.61;100.00;102664.46;1793032;80;26291;-86
2021/01/09 06:37:00;;;;;;;18.83;9.83;;;;;;;2.58;100.00;102663.48;1793256;79;26232;-87
2021/01/09 06:39:33;;;;;;;20.90;10.80;;;;;;;2.51;100.00;102663.05;1793231;79;26522;-87
2021/01/09 06:42:05;;;;;;;18.73;9.63;;;;;;;2.59;100.00;102662.45;1813346;79;26280;-86
2021/01/09 06:44:36;;;;;;;18.20;9.30;;;;;;;2.52;100.00;102657.91;1793468;80;26278;-87
2021/01/09 06:47:06;;;;;;;16.23;9.20;;;;;;;2.48;100.00;102662.89;1793567;79;26209;-85
2021/01/09 06:49:35;;;;;;;16.77;8.23;;;;;;;2.48;100.00;102669.75;1793468;79;26296;-85
2021/01/09 06:52:06;;;;;;;15.30;8.07;;;;;;;2.38;100.00;102670.55;1793236;80;26232;-84
2021/01/09 06:54:46;;;;;;;12.80;8.30;;;;;;;2.44;100.00;102668.42;1793333;79;26216;-85
2021/01/09 06:57:19;;;;;;;13.97;8.73;;;;;;;2.59;100.00;102667.08;1793302;79;26282;-86
2021/01/09 06:59:50;;;;;;;14.57;8.20;;;;;;;2.50;100.00;102673.17;1793450;79;26227;-85
2021/01/09 07:02:29;;;;;;;14.40;8.40;;;;;;;2.45;100.00;102674.77;1793246;80;26639;-86
2021/01/09 07:05:06;;;;;;;14.40;8.07;;;;;;;2.57;100.00;102678.73;1793313;80;26286;-87
2021/01/09 07:07:39;;;;;;;16.80;8.70;;;;;;;2.59;100.00;102672.05;1793265;79;26212;-85
2021/01/09 07:10:22;;;;;;;17.00;8.57;;;;;;;2.54;100.00;102681.35;1793275;79;26226;-85
2021/01/09 07:12:57;;;;;;;15.57;8.33;;;;;;;2.50;100.00;102675.05;1793213;79;26302;-86
2021/01/09 07:15:28;;;;;;;17.27;9.30;;;;;;;2.59;100.00;102687.65;1793306;79;26267;-87
2021/01/09 07:18:00;;;;;;;17.67;9.17;;;;;;;2.46;100.00;102695.16;1793345;79;26225;-85
2021/01/09 07:20:32;;;;;;;15.20;8.73;;;;;;;2.55;100.00;102695.92;1793215;80;26227;-85
2021/01/09 07:23:05;;;;;;;20.83;9.47;;;;;;;2.56;100.00;102700.38;1793368;79;26337;-86
2021/01/09 07:25:37;;;;;;;17.30;9.07;;;;;;;2.63;100.00;102696.69;1793358;79;26223;-85
2021/01/09 07:28:11;;;;;;;19.30;10.20;;;;;;;2.50;100.00;102692.89;1793295;80;26228;-87
2021/01/09 07:30:41;;;;;;;13.87;8.47;;;;;;;2.55;100.00;102700.89;1793401;79;26275;-87
2021/01/09 07:33:13;;;;;;;20.53;9.13;;;;;;;2.49;100.00;102700.77;1793275;80;26256;-87
2021/01/09 07:35:45;;;;;;;18.43;9.80;;;;;;;2.41;100.00;102703.60;1793413;80;26227;-85
2021/01/09 07:38:15;;;;;;;19.30;9.47;;;;;;;2.48;100.00;102703.20;1793236;80;26766;-87
2021/01/09 07:40:56;;;;;;;19.10;10.13;;;;;;;2.46;100.00;102711.61;1793295;80;26227;-87
2021/01/09 07:43:38;;;;;;;18.13;10.00;;;;;;;2.44;100.00;102715.05;1793220;80;26742;-85
2021/01/09 07:46:30;;;;;;;17.43;10.07;;;;;;;2.39;100.00;102714.78;1793333;80;26279;-85
2021/01/09 07:49:02;;;;;;;18.47;9.83;;;;;;;2.29;100.00;102715.55;1793237;80;26725;-87
2021/01/09 07:51:52;;;;;;;20.23;9.67;;;;;;;2.40;100.00;102720.57;1793241;80;26297;-86
2021/01/09 07:54:36;;;;;;;17.57;9.53;;;;;;;2.42;100.00;102724.00;1793297;79;26325;-84
2021/01/09 07:57:08;;;;;;;19.80;9.53;;;;;;;2.21;100.00;102727.95;1793366;79;26215;-87
2021/01/09 07:59:38;;;;;;;18.37;10.13;;;;;;;2.25;100.00;102730.15;1797501;78;26286;-83
2021/01/09 08:02:08;;;;;;;18.47;9.83;;;;;;;2.31;100.00;102735.94;1793433;80;26220;-85
2021/01/09 08:04:38;;;;;;;17.27;9.63;;;;;;;2.38;100.00;102745.97;1793506;79;26229;-85
2021/01/09 08:07:08;;;;;;;17.53;8.50;;;;;;;2.18;100.00;102746.16;1793431;80;26220;-86
2021/01/09 08:09:38;;;;;;;15.83;8.87;;;;;;;2.11;100.00;102750.12;1793367;79;26668;-86
2021/01/09 08:12:08;;;;;;;13.87;8.07;;;;;;;2.12;100.00;102749.61;1793289;80;26344;-86
2021/01/09 08:14:38;;;;;;;15.47;9.70;;;;;;;2.13;100.00;102752.19;1793249;79;26429;-86
2021/01/09 08:17:10;;;;;;;19.27;11.03;;;;;;;2.05;100.00;102754.99;1793295;80;26216;-86
2021/01/09 08:19:40;;;;;;;21.13;10.47;;;;;;;2.03;100.00;102761.16;1793405;80;26764;-87
2021/01/09 08:22:12;;;;;;;18.77;10.53;;;;;;;2.09;100.00;102764.55;1793485;80;26722;-87
2021/01/09 08:24:42;;;;;;;16.03;10.27;;;;;;;2.08;100.00;102760.61;1793324;79;26766;-86
2021/01/09 08:27:20;;;;;;;19.03;11.10;;;;;;;2.18;100.00;102763.97;1793268;80;26279;-87
2021/01/09 08:29:50;;;;;;;19.03;11.13;;;;;;;2.17;100.00;102766.38;1793313;79;26290;-85
2021/01/09 08:32:20;;;;;;;21.13;11.63;;;;;;;2.18;100.00;102762.05;1793304;78;26741;-84
2021/01/09 08:34:50;;;;;;;20.10;11.57;;;;;;;1.96;100.00;102771.67;1793323;80;26227;-83
2021/01/09 08:37:20;;;;;;;17.97;10.27;;;;;;;1.95;100.00;102771.33;1793337;80;26227;-84
2021/01/09 08:39:50;;;;;;;19.63;11.63;;;;;;;2.03;100.00;102773.49;1793224;80;26228;-84
2021/01/09 08:42:23;;;;;;;22.27;11.20;;;;;;;2.16;100.00;102781.11;1793235;79;26228;-83
2021/01/09 08:44:53;;;;;;;22.83;11.83;;;;;;;1.96;100.00;102779.89;1793267;80;26667;-86
2021/01/09 08:47:24;;;;;;;20.80;11.57;;;;;;;1.89;100.00;102777.52;1793225;80;26374;-85
2021/01/09 08:49:56;;;;;;;23.27;13.17;;;;;;;1.79;100.00;102777.27;1793280;80;26250;-85
2021/01/09 08:52:29;;;;;;;23.50;12.63;;;;;;;1.92;100.00;102778.55;1793179;79;26239;-86
2021/01/09 08:55:00;;;;;;;21.90;12.50;;;;;;;2.03;100.00;102779.48;1793364;79;26627;-85
2021/01/09 08:57:30;;;;;;;22.83;13.00;;;;;;;2.16;100.00;102785.22;1793420;79;26658;-86
2021/01/09 09:00:03;;;;;;;19.80;12.50;;;;;;;2.26;100.00;102788.59;1793387;80;26302;-85
2021/01/09 09:02:36;;;;;;;24.10;13.07;;;;;;;2.27;100.00;102792.49;1793380;79;26275;-84
2021/01/09 09:05:09;;;;;;;21.67;12.50;;;;;;;2.06;100.00;102792.82;1784269;80;26216;-87
2021/01/09 09:07:44;;;;;;;22.83;12.70;;;;;;;1.90;100.00;102799.78;1793211;80;26632;-87
2021/01/09 09:10:15;;;;;;;20.17;12.40;;;;;;;2.15;100.00;102804.92;1793257;79;26259;-87
2021/01/09 09:12:45;;;;;;;25.23;12.63;;;;;;;2.04;100.00;102803.98;1793266;80;26675;-87
2021/01/09 09:15:17;;;;;;;21.43;13.27;;;;;;;2.17;100.00;102800.64;1793198;77;26284;-86
2021/01/09 09:17:51;;;;;;;21.87;13.07;;;;;;;1.89;100.00;102795.33;1792549;79;26286;-81
2021/01/09 09:20:22;;;;;;;20.90;12.67;;;;;;;1.94;100.00;102796.50;1793209;79;26220;-82
2021/01/09 09:22:53;;;;;;;19.00;11.70;;;;;;;1.92;100.00;102805.95;1793323;80;26661;-81
2021/01/09 09:25:26;;;;;;;18.73;11.73;;;;;;;1.90;100.00;102809.37;1793067;80;26219;-82
2021/01/09 09:28:05;;;;;;;18.20;11.60;;;;;;;1.88;100.00;102811.46;1793096;80;26298;-81
2021/01/09 09:30:35;;;;;;;20.43;11.13;;;;;;;2.00;100.00;102810.01;1793110;80;26663;-82
2021/01/09 09:33:15;;;;;;;19.97;12.80;;;;;;;1.92;100.00;102810.92;1793132;77;26283;-82
2021/01/09 09:35:45;;;;;;;19.83;11.43;;;;;;;1.95;100.00;102819.28;1793164;79;26294;-83
2021/01/09 09:38:16;;;;;;;19.93;11.77;;;;;;;2.08;100.00;102817.66;1793167;80;26213;-83
2021/01/09 09:40:46;;;;;;;21.47;11.60;;;;;;;1.84;100.00;102821.38;1792642;79;26293;-82
2021/01/09 09:43:18;;;;;;;20.97;12.63;;;;;;;1.96;100.00;102823.23;1793115;80;26212;-81
2021/01/09 09:45:58;;;;;;;21.30;12.93;;;;;;;1.89;100.00;102828.22;1793211;80;26690;-79
2021/01/09 09:48:35;;;;;;;23.73;13.07;;;;;;;1.74;100.00;102837.22;1793216;79;26217;-83
2021/01/09 09:51:08;;;;;;;21.83;12.80;;;;;;;1.84;100.00;102842.45;1793121;80;26208;-84
2021/01/09 09:53:40;;;;;;;19.37;11.83;;;;;;;1.83;100.00;102848.98;1793216;79;26298;-83
2021/01/09 09:56:16;;;;;;;20.77;12.00;;;;;;;1.77;100.00;102845.06;1793263;79;26216;-83
2021/01/09 09:58:46;;;;;;;20.40;12.17;;;;;;;1.71;100.00;102844.39;1793670;80;26232;-82
2021/01/09 10:01:21;;;;;;;23.10;13.07;;;;;;;1.90;100.00;102847.23;1793488;79;26741;-82
2021/01/09 10:03:52;;;;;;;20.53;12.60;;;;;;;1.82;100.00;102839.05;1793230;79;26651;-82
2021/01/09 10:06:22;;;;;;;19.83;12.27;;;;;;;1.89;100.00;102843.28;1793299;80;26219;-83
2021/01/09 10:08:52;;;;;;;22.03;13.67;;;;;;;1.66;100.00;102839.99;1793440;80;26726;-82
2021/01/09 10:11:24;;;;;;;23.37;13.17;;;;;;;1.89;100.00;102832.32;1793360;80;26220;-82
2021/01/09 10:13:56;;;;;;;23.47;13.07;;;;;;;1.88;100.00;102836.98;1793170;79;26333;-82
2021/01/09 10:16:27;;;;;;;23.93;13.70;;;;;;;1.91;100.00;102840.72;1793014;77;26338;-82
2021/01/09 10:18:57;;;;;;;22.60;13.57;;;;;;;1.97;100.00;102847.37;1793370;79;26685;-83
2021/01/09 10:21:29;;;;;;;23.17;13.47;;;;;;;1.85;100.00;102845.53;1793412;79;26205;-83
2021/01/09 10:24:00;;;;;;;24.67;15.20;;;;;;;2.10;100.00;102859.95;1793251;80;26252;-82
2021/01/09 10:26:31;;;;;;;26.80;14.97;;;;;;;2.12;100.00;102857.90;1793491;79;26310;-81
2021/01/09 10:29:01;;;;;;;27.50;16.10;;;;;;;2.04;100.00;102855.20;1793364;79;26216;-85
2021/01/09 10:31:33;;;;;;;28.53;14.83;;;;;;;2.24;100.00;102863.30;1793543;79;26664;-84
2021/01/09 10:34:05;;;;;;;28.10;15.67;;;;;;;2.36;100.00;102860.98;1793324;77;26244;-84
2021/01/09 10:36:41;;;;;;;25.97;15.73;;;;;;;2.34;100.00;102861.19;1792231;80;26261;-83
2021/01/09 10:39:11;;;;;;;33.03;19.00;;;;;;;2.24;100.00;102850.45;1793210;79;26676;-83
2021/01/09 10:41:41;;;;;;;33.67;19.40;;;;;;;2.06;100.00;102843.02;1793320;80;26216;-83
2021/01/09 10:44:10;;;;;;;33.40;18.43;;;;;;;1.91;100.00;102836.61;1793229;80;26356;-79
2021/01/09 10:46:44;;;;;;;32.37;17.80;;;;;;;1.99;100.00;102837.93;1793335;80;26216;-82
2021/01/09 10:49:14;;;;;;;31.37;16.87;;;;;;;2.05;100.00;102834.48;1793306;79;26201;-82
2021/01/09 10:51:43;;;;;;;34.30;18.23;;;;;;;2.07;100.00;102835.66;1793435;79;26296;-81
2021/01/09 10:54:13;;;;;;;30.30;17.73;;;;;;;2.18;100.00;102831.14;1793251;80;26223;-82
2021/01/09 10:56:47;;;;;;;32.03;17.47;;;;;;;2.02;100.00;102829.85;1793284;80;26303;-81
2021/01/09 10:59:18;;;;;;;35.50;18.17;;;;;;;1.97;100.00;102829.02;1793157;80;26212;-80
2021/01/09 11:01:48;;;;;;;29.47;16.73;;;;;;;1.97;100.00;102833.67;1793132;80;26631;-82
2021/01/09 11:04:18;;;;;;;27.67;15.53;;;;;;;1.94;100.00;102829.39;1793450;79;26301;-81
2021/01/09 11:06:48;;;;;;;30.17;16.70;;;;;;;1.84;100.00;102828.75;1793171;80;26212;-82
2021/01/09 11:09:19;;;;;;;29.43;16.33;;;;;;;2.04;100.00;102825.06;1793146;79;26741;-81
2021/01/09 11:11:49;;;;;;;27.93;15.40;;;;;;;1.96;100.00;102827.85;1793121;80;26220;-82
2021/01/09 11:14:19;;;;;;;25.40;15.20;;;;;;;1.73;100.00;102832.77;1793193;79;26655;-82
2021/01/09 11:16:54;;;;;;;31.23;17.10;;;;;;;1.86;100.00;102829.95;1793387;77;27061;-81
2021/01/09 11:19:24;;;;;;;27.17;15.87;;;;;;;2.21;100.00;102830.26;1793262;79;26270;-81
2021/01/09 11:22:00;;;;;;;34.30;16.00;;;;;;;2.12;100.00;102819.01;1793272;80;26232;-81
2021/01/09 11:24:27;;;;;;;28.90;15.80;;;;;;;2.14;100.00;102818.84;1792777;79;26760;-82
2021/01/09 11:27:00;;;;;;;29.23;16.83;;;;;;;2.06;100.00;102803.27;1793483;80;26201;-81
2021/01/09 11:29:30;;;;;;;30.53;16.03;;;;;;;2.00;100.00;102793.05;1793323;80;26231;-81
2021/01/09 11:32:01;;;;;;;30.70;16.17;;;;;;;2.03;100.00;102800.05;1793398;79;26221;-81